createdAt,value
2022-08-30T00:01:14.310Z,7.88
2022-08-30T00:03:46.461Z,7.93
2022-08-30T00:06:18.995Z,7.20
2022-08-30T00:08:46.589Z,7.45
2022-08-30T00:11:21.550Z,6.70
2022-08-30T00:13:50.701Z,6.93
2022-08-30T00:16:20.355Z,7.18
2022-08-30T00:18:48.059Z,7.17
2022-08-30T00:21:15.703Z,7.57
2022-08-30T00:23:42.613Z,8.85
2022-08-30T00:26:09.535Z,8.20
2022-08-30T00:28:36.322Z,8.50
2022-08-30T00:31:04.375Z,8.07
2022-08-30T00:33:31.935Z,7.70
2022-08-30T00:35:59.040Z,7.95
2022-08-30T00:38:25.856Z,8.70
2022-08-30T00:40:53.482Z,8.07
2022-08-30T00:43:27.854Z,7.60
2022-08-30T00:45:55.554Z,7.00
2022-08-30T00:48:22.919Z,7.75
2022-08-30T00:51:00.503Z,8.65
2022-08-30T00:53:31.148Z,9.05
2022-08-30T00:56:00.524Z,8.63
2022-08-30T00:58:31.487Z,9.35
2022-08-30T01:01:00.707Z,9.02
2022-08-30T01:03:28.240Z,9.88
2022-08-30T01:05:56.658Z,9.80
2022-08-30T01:08:23.636Z,9.53
2022-08-30T01:10:52.856Z,9.52
2022-08-30T01:13:21.838Z,9.00
2022-08-30T01:15:50.694Z,8.77
2022-08-30T01:18:18.879Z,9.48
2022-08-30T01:21:19.507Z,9.53
2022-08-30T01:23:49.381Z,9.10
2022-08-30T01:26:21.858Z,9.23
2022-08-30T01:28:53.457Z,8.82
2022-08-30T01:31:20.554Z,10.05
2022-08-30T01:33:47.429Z,9.07
2022-08-30T01:36:15.385Z,8.65
2022-08-30T01:38:48.254Z,8.90
2022-08-30T01:41:36.399Z,8.70
2022-08-30T01:44:10.790Z,8.93
2022-08-30T01:46:42.241Z,7.67
2022-08-30T01:49:12.340Z,8.80
2022-08-30T01:51:39.716Z,8.55
2022-08-30T01:54:07.070Z,8.10
2022-08-30T01:56:34.377Z,8.50
2022-08-30T01:59:03.116Z,8.53
2022-08-30T02:01:32.933Z,8.23
2022-08-30T02:04:00.642Z,7.85
2022-08-30T02:06:28.032Z,7.68
2022-08-30T02:08:54.924Z,8.43
2022-08-30T02:11:21.682Z,8.40
2022-08-30T02:13:48.562Z,7.63
2022-08-30T02:16:20.578Z,8.07
2022-08-30T02:18:47.433Z,7.18
2022-08-30T02:21:14.884Z,7.50
2022-08-30T02:23:42.599Z,7.73
2022-08-30T02:26:10.523Z,7.60
2022-08-30T02:28:49.613Z,7.80
2022-08-30T02:31:21.170Z,7.57
2022-08-30T02:33:52.813Z,7.68
2022-08-30T02:36:21.020Z,7.60
2022-08-30T02:38:48.789Z,9.27
2022-08-30T02:41:16.775Z,9.27
2022-08-30T02:43:43.809Z,9.07
2022-08-30T02:46:10.943Z,7.68
2022-08-30T02:48:37.989Z,7.77
2022-08-30T02:51:11.904Z,7.43
2022-08-30T02:53:40.590Z,7.63
2022-08-30T02:56:08.107Z,7.15
2022-08-30T02:58:35.512Z,7.03
2022-08-30T03:01:02.806Z,6.73
2022-08-30T03:03:29.690Z,6.78
2022-08-30T03:05:56.552Z,6.75
2022-08-30T03:08:23.483Z,6.68
2022-08-30T03:10:50.351Z,7.18
2022-08-30T03:13:17.346Z,6.73
2022-08-30T03:15:44.268Z,6.72
2022-08-30T03:18:11.285Z,7.30
2022-08-30T03:20:38.739Z,6.53
2022-08-30T03:23:05.578Z,6.75
2022-08-30T03:25:33.877Z,6.77
2022-08-30T03:28:01.554Z,6.50
2022-08-30T03:30:28.624Z,7.15
2022-08-30T03:32:55.425Z,6.70
2022-08-30T03:35:22.223Z,7.32
2022-08-30T03:37:49.668Z,6.43
2022-08-30T03:40:23.122Z,6.55
2022-08-30T03:42:50.819Z,6.72
2022-08-30T03:45:19.627Z,6.50
2022-08-30T03:47:46.967Z,6.80
2022-08-30T03:50:15.914Z,6.77
2022-08-30T03:52:42.741Z,6.97
2022-08-30T03:55:09.771Z,6.80
2022-08-30T03:57:36.697Z,7.00
2022-08-30T04:00:05.221Z,6.95
2022-08-30T04:02:38.647Z,6.73
2022-08-30T04:05:06.711Z,6.60
2022-08-30T04:07:33.710Z,6.85
2022-08-30T04:10:00.940Z,6.57
2022-08-30T04:12:27.792Z,6.57
2022-08-30T04:14:54.671Z,6.43
2022-08-30T04:17:21.523Z,6.43
2022-08-30T04:19:48.352Z,6.80
2022-08-30T04:22:15.997Z,7.40
2022-08-30T04:24:43.009Z,6.75
2022-08-30T04:27:10.347Z,6.40
2022-08-30T04:29:37.196Z,6.68
2022-08-30T04:32:04.433Z,6.93
2022-08-30T04:34:31.346Z,6.43
2022-08-30T04:36:58.159Z,6.85
2022-08-30T04:39:25.543Z,6.07
2022-08-30T04:41:52.517Z,5.47
2022-08-30T04:44:19.829Z,5.97
2022-08-30T04:46:47.023Z,5.53
2022-08-30T04:49:14.051Z,5.82
2022-08-30T04:51:41.151Z,5.43
2022-08-30T04:54:08.040Z,4.70
2022-08-30T04:56:34.955Z,5.18
2022-08-30T04:59:02.225Z,5.18
2022-08-30T05:01:32.308Z,4.90
2022-08-30T05:04:11.411Z,4.40
2022-08-30T05:06:38.172Z,4.50
2022-08-30T05:09:05.782Z,4.40
2022-08-30T05:11:33.248Z,4.70
2022-08-30T05:14:00.074Z,4.53
2022-08-30T05:16:27.346Z,5.30
2022-08-30T05:18:54.767Z,5.10
2022-08-30T05:21:25.592Z,4.90
2022-08-30T05:23:57.415Z,5.47
2022-08-30T05:26:27.626Z,4.60
2022-08-30T05:28:54.798Z,4.60
2022-08-30T05:31:27.365Z,5.03
2022-08-30T05:33:56.033Z,5.20
2022-08-30T05:36:25.617Z,5.40
2022-08-30T05:38:52.971Z,5.20
2022-08-30T05:41:22.042Z,4.90
2022-08-30T05:43:52.007Z,4.65
2022-08-30T05:46:19.798Z,4.97
2022-08-30T05:48:47.009Z,5.00
2022-08-30T05:51:17.599Z,4.70
2022-08-30T05:53:45.967Z,4.80
2022-08-30T05:56:15.341Z,5.28
2022-08-30T05:58:42.746Z,4.90
2022-08-30T06:01:22.998Z,4.75
2022-08-30T06:03:49.855Z,4.97
2022-08-30T06:06:16.770Z,4.90
2022-08-30T06:08:46.137Z,4.57
2022-08-30T06:11:14.098Z,5.07
2022-08-30T06:13:41.479Z,5.28
2022-08-30T06:16:11.636Z,5.28
2022-08-30T06:18:38.536Z,4.37
2022-08-30T06:21:05.839Z,4.32
2022-08-30T06:23:32.820Z,5.22
2022-08-30T06:26:06.997Z,9.10
2022-08-30T06:28:34.705Z,5.47
2022-08-30T06:31:01.489Z,6.00
2022-08-30T06:33:28.342Z,6.55
2022-08-30T06:35:58.865Z,7.40
2022-08-30T06:38:26.884Z,7.57
2022-08-30T06:40:53.702Z,7.18
2022-08-30T06:43:20.942Z,7.10
2022-08-30T06:45:47.896Z,7.07
2022-08-30T06:48:14.814Z,7.03
2022-08-30T06:50:42.260Z,6.72
2022-08-30T06:53:09.668Z,6.68
2022-08-30T06:55:37.365Z,6.33
2022-08-30T06:58:04.983Z,7.10
2022-08-30T07:00:31.812Z,6.95
2022-08-30T07:02:59.137Z,7.45
2022-08-30T07:05:26.013Z,7.13
2022-08-30T07:07:55.491Z,6.87
2022-08-30T07:10:22.267Z,6.20
2022-08-30T07:12:49.421Z,4.63
2022-08-30T07:15:16.577Z,4.40
2022-08-30T07:18:01.968Z,4.47
2022-08-30T07:20:39.983Z,4.67
2022-08-30T07:23:09.151Z,4.95
2022-08-30T07:25:40.480Z,5.32
2022-08-30T07:28:08.597Z,4.43
2022-08-30T07:30:35.699Z,4.70
2022-08-30T07:33:02.916Z,4.63
2022-08-30T07:35:29.806Z,4.57
2022-08-30T07:37:56.636Z,5.07
2022-08-30T07:40:23.487Z,4.63
2022-08-30T07:42:50.762Z,5.10
2022-08-30T07:45:18.619Z,5.50
2022-08-30T07:47:46.185Z,4.90
2022-08-30T07:50:13.283Z,5.50
2022-08-30T07:52:40.146Z,5.57
2022-08-30T07:55:07.551Z,5.07
2022-08-30T07:57:37.462Z,4.67
2022-08-30T08:00:06.349Z,4.93
2022-08-30T08:02:40.689Z,5.10
2022-08-30T08:05:08.511Z,5.30
2022-08-30T08:07:35.831Z,5.60
2022-08-30T08:10:04.096Z,5.27
2022-08-30T08:12:30.835Z,5.28
2022-08-30T08:14:57.674Z,5.93
2022-08-30T08:17:24.506Z,7.05
2022-08-30T08:19:52.034Z,7.43
2022-08-30T08:22:21.273Z,7.43
2022-08-30T08:24:49.171Z,7.40
2022-08-30T08:27:16.559Z,6.65
2022-08-30T08:29:43.442Z,6.70
2022-08-30T08:32:10.303Z,7.03
2022-08-30T08:34:37.408Z,7.00
2022-08-30T08:37:04.340Z,7.65
2022-08-30T08:39:31.218Z,8.25
2022-08-30T08:42:13.052Z,7.63
2022-08-30T08:44:59.263Z,7.82
2022-08-30T08:47:52.945Z,7.40
2022-08-30T08:50:22.109Z,7.20
2022-08-30T08:53:20.521Z,7.07
2022-08-30T08:55:58.036Z,6.80
2022-08-30T08:58:28.682Z,7.80
2022-08-30T09:00:58.126Z,6.97
2022-08-30T09:03:28.251Z,6.28
2022-08-30T09:05:56.049Z,7.20
2022-08-30T09:08:23.822Z,6.93
2022-08-30T09:10:53.876Z,7.00
2022-08-30T09:13:22.912Z,6.80
2022-08-30T09:15:54.614Z,7.28
2022-08-30T09:18:42.080Z,7.45
2022-08-30T09:21:13.633Z,6.47
2022-08-30T09:23:56.983Z,6.78
2022-08-30T09:26:33.864Z,6.50
2022-08-30T09:29:01.161Z,6.38
2022-08-30T09:31:30.861Z,6.25
2022-08-30T09:34:03.391Z,5.65
2022-08-30T09:36:33.423Z,5.47
2022-08-30T09:39:05.099Z,5.30
2022-08-30T09:41:40.106Z,5.68
2022-08-30T09:44:18.014Z,5.07
2022-08-30T09:46:51.589Z,5.45
2022-08-30T09:49:32.711Z,5.70
2022-08-30T09:52:07.121Z,5.13
2022-08-30T09:54:57.303Z,5.38
2022-08-30T09:57:35.948Z,5.60
2022-08-30T10:00:15.270Z,5.43
2022-08-30T10:02:48.356Z,5.07
2022-08-30T10:05:36.663Z,5.10
2022-08-30T10:08:14.620Z,5.25
2022-08-30T10:11:08.470Z,5.25
2022-08-30T10:13:56.786Z,5.18
2022-08-30T10:16:32.590Z,5.38
2022-08-30T10:19:29.823Z,4.80
2022-08-30T10:22:04.407Z,5.25
2022-08-30T10:24:36.023Z,5.28
2022-08-30T10:27:26.526Z,5.18
2022-08-30T10:30:02.717Z,4.82
2022-08-30T10:32:37.889Z,5.47
2022-08-30T10:35:11.247Z,5.32
2022-08-30T10:37:50.204Z,4.72
2022-08-30T10:41:03.595Z,4.65
2022-08-30T10:43:41.905Z,5.03
2022-08-30T10:46:18.615Z,4.57
2022-08-30T10:48:48.500Z,4.72
2022-08-30T10:51:36.887Z,4.20
2022-08-30T10:54:18.777Z,4.57
2022-08-30T10:56:49.554Z,4.70
2022-08-30T10:59:21.205Z,4.50
2022-08-30T11:02:16.375Z,4.18
2022-08-30T11:05:02.511Z,4.60
2022-08-30T11:07:52.266Z,4.60
2022-08-30T11:10:34.792Z,4.70
2022-08-30T11:13:12.968Z,4.00
2022-08-30T11:16:04.554Z,3.83
2022-08-30T11:18:34.760Z,4.40
2022-08-30T11:21:31.251Z,4.40
2022-08-30T11:24:00.942Z,4.65
2022-08-30T11:26:57.501Z,4.40
2022-08-30T11:29:30.062Z,4.05
2022-08-30T11:32:13.902Z,4.30
2022-08-30T11:34:47.010Z,4.40
2022-08-30T11:37:35.997Z,4.35
2022-08-30T11:40:05.383Z,3.57
2022-08-30T11:42:36.466Z,4.00
2022-08-30T11:45:22.140Z,4.25
2022-08-30T11:48:04.568Z,4.38
2022-08-30T11:50:55.780Z,4.18
2022-08-30T11:53:25.584Z,4.03
2022-08-30T11:56:04.281Z,4.13
2022-08-30T11:58:33.778Z,4.28
2022-08-30T12:01:50.234Z,4.57
2022-08-30T12:04:15.141Z,4.57
2022-08-30T12:06:42.275Z,4.17
2022-08-30T12:09:35.754Z,4.30
2022-08-30T12:12:08.094Z,4.22
2022-08-30T12:14:54.677Z,4.30
2022-08-30T12:18:04.870Z,4.20
2022-08-30T12:20:42.583Z,3.90
2022-08-30T12:23:23.286Z,4.32
2022-08-30T12:25:51.181Z,3.85
2022-08-30T12:28:24.520Z,4.32
2022-08-30T12:30:52.737Z,4.15
2022-08-30T12:33:42.044Z,3.87
2022-08-30T12:36:36.546Z,4.32
2022-08-30T12:39:07.474Z,4.00
2022-08-30T12:41:34.722Z,4.35
2022-08-30T12:44:31.079Z,4.40
2022-08-30T12:47:02.998Z,4.00
2022-08-30T12:49:33.994Z,4.30
2022-08-30T12:52:19.333Z,4.20
2022-08-30T12:54:47.023Z,4.20
2022-08-30T12:57:34.596Z,4.35
2022-08-30T13:00:02.060Z,4.10
2022-08-30T13:02:52.695Z,4.18
2022-08-30T13:05:48.089Z,4.40
2022-08-30T13:08:22.649Z,4.70
2022-08-30T13:10:56.983Z,4.35
2022-08-30T13:13:33.966Z,3.93
2022-08-30T13:16:09.999Z,3.88
2022-08-30T13:18:37.163Z,3.70
2022-08-30T13:21:11.556Z,3.50
2022-08-30T13:23:39.554Z,4.28
2022-08-30T13:26:07.947Z,3.33
2022-08-30T13:29:00.223Z,3.83
2022-08-30T13:31:29.092Z,4.05
2022-08-30T13:33:57.630Z,4.15
2022-08-30T13:36:30.538Z,3.53
2022-08-30T13:38:58.631Z,3.90
2022-08-30T13:41:26.219Z,3.78
2022-08-30T13:44:14.246Z,3.92
2022-08-30T13:46:52.316Z,3.50
2022-08-30T13:49:44.301Z,3.83
2022-08-30T13:52:21.355Z,3.70
2022-08-30T13:54:57.171Z,3.53
2022-08-30T14:00:19.289Z,3.47
2022-08-30T14:02:54.940Z,3.60
2022-08-30T14:05:54.719Z,3.40
2022-08-30T14:11:19.386Z,3.67
2022-08-30T14:16:36.479Z,3.90
2022-08-30T14:19:04.084Z,3.50
2022-08-30T14:21:32.864Z,3.53
2022-08-30T14:23:59.966Z,3.50
2022-08-30T14:26:39.772Z,3.45
2022-08-30T14:29:13.634Z,3.50
2022-08-30T14:31:40.754Z,3.43
2022-08-30T14:34:10.821Z,3.25
2022-08-30T14:36:40.370Z,3.45
2022-08-30T14:39:10.027Z,3.60
2022-08-30T14:41:43.934Z,3.40
2022-08-30T14:44:12.701Z,3.40
2022-08-30T14:46:40.380Z,3.40
2022-08-30T14:49:07.499Z,3.38
2022-08-30T14:51:37.092Z,3.75
2022-08-30T14:54:04.107Z,3.65
2022-08-30T14:56:31.466Z,3.80
2022-08-30T14:59:00.662Z,3.33
2022-08-30T15:01:28.313Z,3.28
2022-08-30T15:03:56.047Z,4.18
2022-08-30T15:06:23.100Z,3.80
2022-08-30T15:08:54.493Z,3.60
2022-08-30T15:11:23.400Z,3.42
2022-08-30T15:13:52.864Z,3.63
2022-08-30T15:16:29.817Z,3.83
2022-08-30T15:18:58.705Z,3.80
2022-08-30T15:21:36.891Z,3.73
2022-08-30T15:24:05.601Z,3.22
2022-08-30T15:26:33.188Z,3.53
2022-08-30T15:29:00.053Z,3.53
2022-08-30T15:31:28.828Z,3.65
2022-08-30T15:33:55.670Z,3.80
2022-08-30T15:36:24.170Z,3.63
2022-08-30T15:38:55.480Z,4.07
2022-08-30T15:41:23.750Z,3.58
2022-08-30T15:43:52.855Z,3.90
2022-08-30T15:46:29.768Z,3.47
2022-08-30T15:49:01.379Z,3.63
2022-08-30T15:51:28.675Z,3.92
2022-08-30T15:53:58.407Z,3.80
2022-08-30T15:56:25.276Z,3.45
2022-08-30T15:58:53.196Z,3.50
2022-08-30T16:01:30.174Z,4.07
2022-08-30T16:03:58.804Z,3.33
2022-08-30T16:06:29.959Z,3.53
2022-08-30T16:08:58.124Z,3.40
2022-08-30T16:11:26.161Z,3.80
2022-08-30T16:13:55.058Z,4.20
2022-08-30T16:16:22.952Z,3.42
2022-08-30T16:18:53.583Z,3.47
2022-08-30T16:21:32.172Z,3.80
2022-08-30T16:24:03.202Z,3.80
2022-08-30T16:26:34.512Z,3.45
2022-08-30T16:29:03.187Z,3.83
2022-08-30T16:31:32.097Z,3.95
2022-08-30T16:34:03.651Z,3.72
2022-08-30T16:36:35.767Z,3.63
2022-08-30T16:39:08.480Z,3.22
2022-08-30T16:41:37.565Z,3.75
2022-08-30T16:44:05.788Z,4.13
2022-08-30T16:46:34.222Z,3.70
2022-08-30T16:49:05.384Z,4.00
2022-08-30T16:51:34.895Z,3.70
2022-08-30T16:54:07.682Z,4.38
2022-08-30T16:56:37.540Z,3.72
2022-08-30T16:59:10.867Z,3.72
2022-08-30T17:01:39.251Z,3.87
2022-08-30T17:04:08.306Z,3.83
2022-08-30T17:06:35.860Z,4.13
2022-08-30T17:09:04.530Z,3.72
2022-08-30T17:11:32.522Z,4.03
2022-08-30T17:13:59.968Z,4.53
2022-08-30T17:16:30.258Z,4.18
2022-08-30T17:19:00.428Z,4.68
2022-08-30T17:21:29.905Z,4.18
2022-08-30T17:24:02.127Z,4.03
2022-08-30T17:26:34.233Z,4.03
2022-08-30T17:29:01.656Z,4.35
2022-08-30T17:31:31.483Z,4.40
2022-08-30T17:36:52.820Z,4.32
2022-08-30T17:39:21.165Z,3.97
2022-08-30T17:41:50.571Z,4.30
2022-08-30T17:44:25.460Z,4.32
2022-08-30T17:46:54.431Z,4.00
2022-08-30T17:49:23.431Z,4.70
2022-08-30T17:51:55.707Z,3.97
2022-08-30T17:57:13.061Z,4.60
2022-08-30T17:59:41.763Z,4.53
2022-08-30T18:02:11.268Z,4.88
2022-08-30T18:04:41.717Z,4.20
2022-08-30T18:07:11.849Z,4.47
2022-08-30T18:09:40.409Z,4.72
2022-08-30T18:12:08.166Z,4.47
2022-08-30T18:14:35.496Z,4.30
2022-08-30T18:17:05.599Z,4.37
2022-08-30T18:19:33.443Z,4.22
2022-08-30T18:22:02.735Z,4.05
2022-08-30T18:24:30.479Z,4.22
2022-08-30T18:26:59.062Z,4.90
2022-08-30T18:29:31.228Z,3.87
2022-08-30T18:32:02.709Z,4.43
2022-08-30T18:34:31.242Z,4.65
2022-08-30T18:36:59.295Z,4.75
2022-08-30T18:39:26.393Z,4.63
2022-08-30T18:41:54.607Z,4.40
2022-08-30T18:44:33.212Z,4.45
2022-08-30T18:47:05.764Z,4.90
2022-08-30T18:49:34.805Z,4.50
2022-08-30T18:52:06.479Z,5.60
2022-08-30T18:54:38.652Z,5.30
2022-08-30T18:57:05.599Z,5.72
2022-08-30T18:59:35.619Z,6.10
2022-08-30T19:02:09.431Z,5.22
2022-08-30T19:04:37.265Z,5.10
2022-08-30T19:07:06.640Z,5.00
2022-08-30T19:09:33.998Z,4.45
2022-08-30T19:12:00.880Z,4.75
2022-08-30T19:14:28.041Z,4.97
2022-08-30T19:16:56.316Z,5.25
2022-08-30T19:19:23.791Z,5.03
2022-08-30T19:21:51.703Z,5.35
2022-08-30T19:24:19.734Z,5.55
2022-08-30T19:26:47.194Z,5.47
2022-08-30T19:29:14.479Z,5.40
2022-08-30T19:31:42.146Z,5.17
2022-08-30T19:34:09.166Z,6.00
2022-08-30T19:36:36.049Z,5.30
2022-08-30T19:39:03.572Z,5.20
2022-08-30T19:41:30.538Z,5.70
2022-08-30T19:43:57.983Z,6.00
2022-08-30T19:46:28.116Z,5.78
2022-08-30T19:48:55.274Z,5.20
2022-08-30T19:51:22.024Z,6.05
2022-08-30T19:53:49.016Z,6.32
2022-08-30T19:56:15.920Z,6.93
2022-08-30T19:58:42.735Z,7.65
2022-08-30T20:01:11.762Z,6.80
2022-08-30T20:03:57.240Z,7.63
2022-08-30T20:06:24.098Z,7.25
2022-08-30T20:08:50.989Z,10.70
2022-08-30T20:11:23.480Z,23.02
2022-08-30T20:13:50.364Z,20.90
2022-08-30T20:16:17.816Z,39.50
2022-08-30T20:18:45.399Z,30.65
2022-08-30T20:21:14.617Z,21.93
2022-08-30T20:23:44.551Z,23.38
2022-08-30T20:24:26.522Z,4.35
2022-08-30T20:26:13.363Z,27.27
2022-08-30T20:28:40.831Z,27.45
2022-08-30T20:31:10.887Z,17.40
2022-08-30T20:33:38.130Z,12.73
2022-08-30T20:36:06.575Z,10.80
2022-08-30T20:38:33.519Z,10.73
2022-08-30T20:41:02.657Z,7.97
2022-08-30T20:43:30.904Z,6.78
2022-08-30T20:45:57.836Z,7.90
2022-08-30T20:48:27.126Z,6.97
2022-08-30T20:50:54.071Z,6.95
2022-08-30T20:53:20.923Z,6.78
2022-08-30T20:55:48.465Z,6.93
2022-08-30T20:58:15.715Z,6.80
2022-08-30T21:00:45.632Z,7.20
2022-08-30T21:03:22.808Z,7.35
2022-08-30T21:05:52.699Z,6.03
2022-08-30T21:08:20.203Z,6.70
2022-08-30T21:10:47.929Z,6.13
2022-08-30T21:13:14.889Z,6.45
2022-08-30T21:15:45.948Z,6.55
2022-08-30T21:18:14.280Z,5.68
2022-08-30T21:20:41.238Z,6.35
2022-08-30T21:23:08.033Z,6.47
2022-08-30T21:25:38.387Z,7.00
2022-08-30T21:28:05.369Z,6.75
2022-08-30T21:30:32.420Z,7.63
2022-08-30T21:33:00.372Z,7.20
2022-08-30T21:35:47.009Z,6.43
2022-08-30T21:38:14.293Z,6.18
2022-08-30T21:40:41.681Z,6.53
2022-08-30T21:43:09.295Z,6.97
2022-08-30T21:45:40.903Z,6.50
2022-08-30T21:48:08.434Z,7.00
2022-08-30T21:50:37.694Z,7.10
2022-08-30T21:53:06.015Z,6.70
2022-08-30T21:55:33.218Z,6.05
2022-08-30T21:57:59.993Z,5.63
2022-08-30T22:00:26.804Z,6.40
2022-08-30T22:02:53.793Z,5.80
2022-08-30T22:05:20.955Z,7.18
2022-08-30T22:07:47.781Z,6.18
2022-08-30T22:10:14.901Z,6.95
2022-08-30T22:12:41.750Z,6.20
2022-08-30T22:15:09.360Z,6.65
2022-08-30T22:17:36.218Z,6.50
2022-08-30T22:20:04.827Z,6.13
2022-08-30T22:22:31.941Z,5.97
2022-08-30T22:24:58.849Z,6.70
2022-08-30T22:27:26.020Z,5.53
2022-08-30T22:29:52.851Z,5.97
2022-08-30T22:32:19.713Z,6.25
2022-08-30T22:34:47.073Z,6.15
2022-08-30T22:37:14.334Z,6.47
2022-08-30T22:39:41.418Z,6.03
2022-08-30T22:42:09.879Z,6.28
2022-08-30T22:44:36.811Z,6.47
2022-08-30T22:47:03.700Z,6.63
2022-08-30T22:49:30.667Z,6.03
2022-08-30T22:51:57.567Z,5.90
2022-08-30T22:54:24.370Z,6.15
2022-08-30T22:56:51.241Z,5.88
2022-08-30T22:59:17.976Z,6.78
2022-08-30T23:01:45.389Z,6.20
2022-08-30T23:04:13.010Z,5.95
2022-08-30T23:06:40.261Z,6.63
2022-08-30T23:09:07.675Z,6.47
2022-08-30T23:11:36.571Z,6.90
2022-08-30T23:14:06.152Z,6.17
2022-08-30T23:16:33.812Z,7.63
2022-08-30T23:19:00.717Z,7.13
2022-08-30T23:21:29.880Z,7.32
2022-08-30T23:24:16.707Z,6.55
2022-08-30T23:27:03.865Z,6.50
2022-08-30T23:29:49.607Z,6.35
2022-08-30T23:32:34.914Z,6.15
2022-08-30T23:35:20.667Z,7.05
2022-08-30T23:38:12.559Z,6.72
2022-08-30T23:40:57.859Z,6.20
2022-08-30T23:43:43.116Z,5.97
2022-08-30T23:46:28.391Z,6.10
2022-08-30T23:49:13.787Z,6.57
2022-08-30T23:51:59.039Z,6.53
2022-08-30T23:54:44.296Z,6.77
2022-08-30T23:57:29.591Z,6.10
